Time;durP1;ratioP1;P1;durP2;ratioP2;P2;SDS_P1;SDS_P2;PMS_P1;PMS_P2;Temp;Humidity;BMP_temperature;BMP_pressure;BME280_temperature;BME280_humidity;BME280_pressure;Samples;Min_cycle;Max_cycle;Signal;HPM_P1;HPM_P2
2023/10/03 00:00:24;;;;;;;0.10;0.10;;;;;;;;;;4971445;28;20043;-87
2023/10/03 00:02:57;;;;;;;0.00;0.00;;;;;;;;;;4976036;28;20427;-86
2023/10/03 00:05:23;;;;;;;0.10;0.10;;;;;;;;;;4973248;28;20065;-85
2023/10/03 00:07:50;;;;;;;0.10;0.10;;;;;;;;;;4977647;28;20034;-87
2023/10/03 00:10:17;;;;;;;0.30;0.30;;;;;;;;;;4977089;28;20042;-88
2023/10/03 00:12:43;;;;;;;0.20;0.20;;;;;;;;;;4975709;28;20046;-87
2023/10/03 00:15:12;;;;;;;0.10;0.10;;;;;;;;;;4976942;28;20043;-87
2023/10/03 00:17:39;;;;;;;0.20;0.20;;;;;;;;;;4964996;28;20129;-87
2023/10/03 00:20:07;;;;;;;0.00;0.00;;;;;;;;;;4969999;28;20038;-86
2023/10/03 00:22:34;;;;;;;0.20;0.20;;;;;;;;;;4974874;28;20089;-86
2023/10/03 00:25:01;;;;;;;0.20;0.20;;;;;;;;;;4988561;28;20396;-86
2023/10/03 00:27:28;;;;;;;0.10;0.10;;;;;;;;;;4971401;28;20038;-87
2023/10/03 00:29:55;;;;;;;0.10;0.10;;;;;;;;;;4989900;28;20046;-87
2023/10/03 00:32:21;;;;;;;0.10;0.10;;;;;;;;;;4973099;28;20042;-86
2023/10/03 00:34:47;;;;;;;0.20;0.20;;;;;;;;;;4971722;28;20053;-87
2023/10/03 00:37:13;;;;;;;0.10;0.10;;;;;;;;;;4975029;28;20096;-86
2023/10/03 00:39:40;;;;;;;0.30;0.30;;;;;;;;;;4972426;28;20442;-85
2023/10/03 00:42:09;;;;;;;0.13;0.13;;;;;;;;;;4976208;28;20050;-87
2023/10/03 00:44:35;;;;;;;0.15;0.15;;;;;;;;;;4992847;28;20054;-85
2023/10/03 00:47:02;;;;;;;0.10;0.10;;;;;;;;;;4974058;28;20069;-86
2023/10/03 00:49:29;;;;;;;0.20;0.20;;;;;;;;;;4971427;28;20117;-86
2023/10/03 00:51:56;;;;;;;0.17;0.17;;;;;;;;;;4978715;28;20046;-87
2023/10/03 00:54:27;;;;;;;0.13;0.13;;;;;;;;;;4981475;28;20046;-87
2023/10/03 00:56:56;;;;;;;0.10;0.10;;;;;;;;;;4973313;28;20070;-85
2023/10/03 00:59:22;;;;;;;0.10;0.10;;;;;;;;;;4972533;28;20088;-85
2023/10/03 01:01:49;;;;;;;0.10;0.10;;;;;;;;;;4974912;28;20054;-87
2023/10/03 01:04:19;;;;;;;0.17;0.17;;;;;;;;;;4972940;28;20050;-86
2023/10/03 01:06:47;;;;;;;0.10;0.10;;;;;;;;;;4976649;28;20038;-87
2023/10/03 01:09:20;;;;;;;0.17;0.17;;;;;;;;;;4956972;28;20084;-87
2023/10/03 01:11:49;;;;;;;0.20;0.20;;;;;;;;;;4977310;28;20093;-86
2023/10/03 01:14:16;;;;;;;0.15;0.15;;;;;;;;;;4978238;28;20035;-87
2023/10/03 01:16:43;;;;;;;0.10;0.10;;;;;;;;;;4981484;28;20046;-87
2023/10/03 01:19:20;;;;;;;0.10;0.10;;;;;;;;;;4993680;28;20046;-85
2023/10/03 01:21:46;;;;;;;0.20;0.20;;;;;;;;;;4993767;28;20050;-87
2023/10/03 01:24:20;;;;;;;0.10;0.10;;;;;;;;;;4974953;28;20038;-87
2023/10/03 01:26:47;;;;;;;0.20;0.20;;;;;;;;;;4977979;28;20077;-87
2023/10/03 01:29:13;;;;;;;0.20;0.20;;;;;;;;;;4991686;28;20034;-86
2023/10/03 01:31:40;;;;;;;0.20;0.20;;;;;;;;;;4977220;28;20047;-86
2023/10/03 01:34:06;;;;;;;0.10;0.10;;;;;;;;;;4971843;28;20045;-87
2023/10/03 01:36:32;;;;;;;0.20;0.20;;;;;;;;;;4981217;28;20041;-85
2023/10/03 01:38:58;;;;;;;0.10;0.10;;;;;;;;;;4979537;28;20184;-86
2023/10/03 01:41:24;;;;;;;0.10;0.10;;;;;;;;;;4975339;28;20486;-86
2023/10/03 01:43:51;;;;;;;0.10;0.10;;;;;;;;;;4969850;28;20050;-86
2023/10/03 01:46:17;;;;;;;0.20;0.20;;;;;;;;;;4981149;28;20089;-86
2023/10/03 01:48:43;;;;;;;0.20;0.20;;;;;;;;;;4980051;28;20045;-87
2023/10/03 01:51:09;;;;;;;0.28;0.28;;;;;;;;;;4980373;28;20034;-86
2023/10/03 01:53:36;;;;;;;0.10;0.10;;;;;;;;;;4979985;28;20045;-87
2023/10/03 01:56:04;;;;;;;0.20;0.20;;;;;;;;;;4980412;28;20081;-87
2023/10/03 01:58:32;;;;;;;0.75;0.75;;;;;;;;;;4996270;28;20121;-87
2023/10/03 02:00:58;;;;;;;0.10;0.10;;;;;;;;;;4995637;28;20054;-87
2023/10/03 02:03:24;;;;;;;0.20;0.20;;;;;;;;;;4980011;28;20038;-87
2023/10/03 02:05:50;;;;;;;0.15;0.15;;;;;;;;;;4980233;28;20155;-86
2023/10/03 02:08:16;;;;;;;0.20;0.20;;;;;;;;;;4980229;28;20046;-85
2023/10/03 02:10:52;;;;;;;0.20;0.20;;;;;;;;;;4980061;28;20124;-87
2023/10/03 02:13:21;;;;;;;0.20;0.20;;;;;;;;;;4980539;28;20046;-85
2023/10/03 02:15:54;;;;;;;0.30;0.30;;;;;;;;;;4995570;28;20046;-84
2023/10/03 02:18:20;;;;;;;0.20;0.20;;;;;;;;;;4979809;28;20042;-87
2023/10/03 02:20:51;;;;;;;0.20;0.20;;;;;;;;;;4995592;28;20082;-85
2023/10/03 02:23:20;;;;;;;0.20;0.20;;;;;;;;;;4995719;28;20415;-86
2023/10/03 02:25:50;;;;;;;0.20;0.20;;;;;;;;;;4979323;28;20047;-87
2023/10/03 02:28:20;;;;;;;0.17;0.17;;;;;;;;;;4995436;28;20404;-86
2023/10/03 02:30:47;;;;;;;0.20;0.20;;;;;;;;;;4995925;28;20452;-85
2023/10/03 02:33:14;;;;;;;0.20;0.20;;;;;;;;;;4979915;28;20107;-87
2023/10/03 02:35:42;;;;;;;0.20;0.20;;;;;;;;;;4979743;28;20064;-87
2023/10/03 02:38:10;;;;;;;0.20;0.20;;;;;;;;;;4980029;28;20046;-87
2023/10/03 02:40:36;;;;;;;0.30;0.30;;;;;;;;;;4979770;28;20522;-87
2023/10/03 02:43:04;;;;;;;0.17;0.17;;;;;;;;;;4995706;28;20046;-87
2023/10/03 02:45:30;;;;;;;0.10;0.10;;;;;;;;;;4995964;28;20104;-86
2023/10/03 02:47:58;;;;;;;0.10;0.10;;;;;;;;;;4995692;28;20038;-87
2023/10/03 02:50:25;;;;;;;0.20;0.20;;;;;;;;;;4979685;28;20399;-86
2023/10/03 02:52:52;;;;;;;0.20;0.20;;;;;;;;;;4979914;28;20049;-86
2023/10/03 02:55:18;;;;;;;0.15;0.15;;;;;;;;;;4980118;28;20495;-86
2023/10/03 02:57:45;;;;;;;0.00;0.00;;;;;;;;;;4979324;28;20096;-87
2023/10/03 03:00:15;;;;;;;0.20;0.20;;;;;;;;;;4979178;28;20474;-87
2023/10/03 03:02:47;;;;;;;0.17;0.17;;;;;;;;;;4978649;28;20101;-86
2023/10/03 03:05:15;;;;;;;0.10;0.10;;;;;;;;;;4979137;28;20046;-86
2023/10/03 03:07:49;;;;;;;0.10;0.10;;;;;;;;;;4980294;28;20049;-85
2023/10/03 03:10:17;;;;;;;0.10;0.10;;;;;;;;;;4978960;28;20096;-86
2023/10/03 03:12:44;;;;;;;0.10;0.10;;;;;;;;;;4978476;28;20042;-87
2023/10/03 03:15:27;;;;;;;0.13;0.13;;;;;;;;;;4978180;28;20081;-86
2023/10/03 03:17:53;;;;;;;0.20;0.20;;;;;;;;;;4978423;28;20057;-87
2023/10/03 03:20:33;;;;;;;0.10;0.10;;;;;;;;;;4994674;28;20042;-87
2023/10/03 03:23:03;;;;;;;0.10;0.10;;;;;;;;;;4979047;28;20129;-87
2023/10/03 03:25:36;;;;;;;0.10;0.10;;;;;;;;;;4994606;28;20061;-86
2023/10/03 03:28:12;;;;;;;0.32;0.32;;;;;;;;;;4995608;28;20129;-87
2023/10/03 03:30:39;;;;;;;0.20;0.20;;;;;;;;;;4995103;28;20042;-87
2023/10/03 03:33:06;;;;;;;0.30;0.30;;;;;;;;;;4977740;28;20120;-86
2023/10/03 03:35:38;;;;;;;0.30;0.30;;;;;;;;;;4976423;28;20046;-88
2023/10/03 03:38:05;;;;;;;0.00;0.00;;;;;;;;;;4959619;28;20051;-86
2023/10/03 03:40:34;;;;;;;0.08;0.08;;;;;;;;;;4959487;28;20047;-87
2023/10/03 03:43:03;;;;;;;0.30;0.30;;;;;;;;;;4958823;28;20485;-87
2023/10/03 03:45:30;;;;;;;0.20;0.20;;;;;;;;;;4975383;28;20078;-87
2023/10/03 03:47:56;;;;;;;0.10;0.10;;;;;;;;;;4958762;28;20077;-85
2023/10/03 03:50:22;;;;;;;0.03;0.03;;;;;;;;;;4974652;28;20034;-86
2023/10/03 03:52:49;;;;;;;0.20;0.20;;;;;;;;;;4959329;28;20054;-87
2023/10/03 03:55:17;;;;;;;0.10;0.10;;;;;;;;;;4958565;28;20051;-87
2023/10/03 03:57:43;;;;;;;0.10;0.10;;;;;;;;;;4959233;28;20050;-86
2023/10/03 04:00:15;;;;;;;0.15;0.15;;;;;;;;;;4959573;28;20074;-87
2023/10/03 04:02:41;;;;;;;0.10;0.10;;;;;;;;;;4967678;28;20105;-87
2023/10/03 04:05:08;;;;;;;0.15;0.15;;;;;;;;;;4977872;28;20035;-86
2023/10/03 04:07:38;;;;;;;0.17;0.17;;;;;;;;;;4995208;28;20046;-87
2023/10/03 04:10:07;;;;;;;0.25;0.25;;;;;;;;;;4978397;28;20045;-86
2023/10/03 04:12:40;;;;;;;0.17;0.17;;;;;;;;;;4978092;28;20396;-87
2023/10/03 04:15:11;;;;;;;0.20;0.20;;;;;;;;;;4994615;28;20518;-86
2023/10/03 04:17:37;;;;;;;0.20;0.20;;;;;;;;;;4978004;28;20038;-87
2023/10/03 04:20:46;;;;;;;0.20;0.20;;;;;;;;;;4978193;28;20081;-87
2023/10/03 04:22:52;;;;;;;0.10;0.10;;;;;;;;;;4986288;28;20054;-87
2023/10/03 04:25:22;;;;;;;0.20;0.20;;;;;;;;;;4978575;28;20048;-88
2023/10/03 04:27:48;;;;;;;0.10;0.10;;;;;;;;;;4981794;28;20042;-87
2023/10/03 04:30:15;;;;;;;0.25;0.25;;;;;;;;;;4981843;28;20042;-86
2023/10/03 04:32:42;;;;;;;0.10;0.10;;;;;;;;;;4981884;28;20132;-87
2023/10/03 04:35:13;;;;;;;0.30;0.30;;;;;;;;;;4998558;28;20100;-88
2023/10/03 04:37:43;;;;;;;0.13;0.13;;;;;;;;;;4998699;28;20046;-87
2023/10/03 04:40:15;;;;;;;0.17;0.17;;;;;;;;;;4982086;28;20142;-87
2023/10/03 04:42:43;;;;;;;0.10;0.10;;;;;;;;;;4981974;28;20521;-87
2023/10/03 04:45:10;;;;;;;0.17;0.17;;;;;;;;;;4981772;28;20038;-87
2023/10/03 04:47:41;;;;;;;0.10;0.10;;;;;;;;;;4997732;28;20043;-87
2023/10/03 04:50:07;;;;;;;0.17;0.17;;;;;;;;;;4981686;28;20045;-87
2023/10/03 04:52:34;;;;;;;0.20;0.20;;;;;;;;;;4982424;28;20614;-88
2023/10/03 04:55:02;;;;;;;0.10;0.10;;;;;;;;;;4981293;28;20045;-88
2023/10/03 04:57:28;;;;;;;0.20;0.20;;;;;;;;;;4998702;28;20050;-88
2023/10/03 04:59:59;;;;;;;0.10;0.10;;;;;;;;;;4982063;28;20399;-89
2023/10/03 05:02:25;;;;;;;0.10;0.10;;;;;;;;;;4982015;28;20501;-87
2023/10/03 05:04:51;;;;;;;0.20;0.20;;;;;;;;;;4981635;28;20044;-88
2023/10/03 05:07:17;;;;;;;0.20;0.20;;;;;;;;;;4982490;28;20042;-88
2023/10/03 05:09:43;;;;;;;0.20;0.20;;;;;;;;;;4980911;28;20053;-87
2023/10/03 05:12:10;;;;;;;0.20;0.20;;;;;;;;;;4982077;28;20038;-88
2023/10/03 05:14:46;;;;;;;0.20;0.20;;;;;;;;;;4998358;28;20084;-89
2023/10/03 05:17:15;;;;;;;0.20;0.20;;;;;;;;;;4998155;28;20044;-87
2023/10/03 05:19:42;;;;;;;0.20;0.20;;;;;;;;;;4981301;28;20125;-89
2023/10/03 05:22:10;;;;;;;0.35;0.35;;;;;;;;;;4981304;28;20049;-89
2023/10/03 05:24:36;;;;;;;0.00;0.00;;;;;;;;;;4980914;28;20046;-89
2023/10/03 05:27:04;;;;;;;0.20;0.20;;;;;;;;;;4981270;28;20050;-88
2023/10/03 05:29:30;;;;;;;0.20;0.20;;;;;;;;;;4981501;28;20054;-87
2023/10/03 05:32:00;;;;;;;0.15;0.15;;;;;;;;;;4981623;28;20069;-88
2023/10/03 05:34:26;;;;;;;0.20;0.20;;;;;;;;;;4981408;28;20045;-89
2023/10/03 05:36:53;;;;;;;0.10;0.10;;;;;;;;;;4981556;28;20105;-89
2023/10/03 05:39:19;;;;;;;0.15;0.15;;;;;;;;;;4981252;28;20046;-89
2023/10/03 05:41:45;;;;;;;0.20;0.20;;;;;;;;;;4981965;28;20038;-88
2023/10/03 05:44:11;;;;;;;0.25;0.25;;;;;;;;;;4997634;28;20038;-89
2023/10/03 05:46:42;;;;;;;0.03;0.03;;;;;;;;;;4997208;28;20038;-88
2023/10/03 05:49:09;;;;;;;0.22;0.22;;;;;;;;;;4981046;28;20125;-89
2023/10/03 05:51:35;;;;;;;0.20;0.20;;;;;;;;;;4981607;28;20125;-88
2023/10/03 05:54:05;;;;;;;0.20;0.20;;;;;;;;;;4980652;28;20042;-87
2023/10/03 05:56:31;;;;;;;0.15;0.15;;;;;;;;;;4997044;28;20122;-89
2023/10/03 05:58:59;;;;;;;0.10;0.10;;;;;;;;;;4981851;28;20100;-88
2023/10/03 06:01:27;;;;;;;0.20;0.20;;;;;;;;;;4997571;28;20042;-88
2023/10/03 06:03:56;;;;;;;0.10;0.10;;;;;;;;;;4965022;28;20038;-87
2023/10/03 06:06:22;;;;;;;0.10;0.10;;;;;;;;;;4981759;28;20046;-89
2023/10/03 06:08:49;;;;;;;0.22;0.22;;;;;;;;;;4980675;28;20388;-89
2023/10/03 06:11:19;;;;;;;0.10;0.10;;;;;;;;;;4980720;28;20042;-88
2023/10/03 06:13:45;;;;;;;0.15;0.15;;;;;;;;;;4980710;28;20049;-89
2023/10/03 06:16:12;;;;;;;0.08;0.08;;;;;;;;;;4980882;28;20084;-88
2023/10/03 06:18:42;;;;;;;0.10;0.10;;;;;;;;;;4980572;28;20050;-88
2023/10/03 06:21:08;;;;;;;0.10;0.10;;;;;;;;;;4997425;28;20038;-89
2023/10/03 06:23:37;;;;;;;0.10;0.10;;;;;;;;;;4980482;28;20047;-88
2023/10/03 06:26:03;;;;;;;0.10;0.10;;;;;;;;;;4980592;28;20042;-89
2023/10/03 06:28:29;;;;;;;0.10;0.10;;;;;;;;;;4980017;28;20069;-89
2023/10/03 06:30:55;;;;;;;0.20;0.20;;;;;;;;;;4980128;28;20042;-89
2023/10/03 06:33:23;;;;;;;0.15;0.15;;;;;;;;;;4980580;28;20034;-87
2023/10/03 06:35:50;;;;;;;0.20;0.20;;;;;;;;;;4981223;28;20045;-86
2023/10/03 06:38:16;;;;;;;0.00;0.00;;;;;;;;;;4996271;28;20046;-89
2023/10/03 06:40:43;;;;;;;0.08;0.08;;;;;;;;;;4979832;28;20078;-87
2023/10/03 06:43:09;;;;;;;0.10;0.10;;;;;;;;;;4980055;28;20546;-88
2023/10/03 06:45:36;;;;;;;0.10;0.10;;;;;;;;;;4996687;28;20506;-90
2023/10/03 06:48:04;;;;;;;0.10;0.10;;;;;;;;;;4979636;28;20038;-88
2023/10/03 06:50:34;;;;;;;0.10;0.10;;;;;;;;;;4979486;28;20042;-87
2023/10/03 06:53:01;;;;;;;0.20;0.20;;;;;;;;;;4980404;28;20042;-88
2023/10/03 06:55:28;;;;;;;0.20;0.20;;;;;;;;;;4979419;28;20038;-88
2023/10/03 06:57:55;;;;;;;0.20;0.20;;;;;;;;;;4979882;28;20415;-90
2023/10/03 07:00:21;;;;;;;0.20;0.20;;;;;;;;;;4979694;28;20495;-88
2023/10/03 07:02:48;;;;;;;0.10;0.10;;;;;;;;;;4979872;28;20038;-88
2023/10/03 07:05:14;;;;;;;0.10;0.10;;;;;;;;;;4979278;28;20557;-87
2023/10/03 07:07:40;;;;;;;0.10;0.10;;;;;;;;;;4979843;28;20434;-86
2023/10/03 07:10:07;;;;;;;0.20;0.20;;;;;;;;;;4979456;28;20077;-88
2023/10/03 07:12:33;;;;;;;0.10;0.10;;;;;;;;;;4979334;28;20046;-88
2023/10/03 07:14:59;;;;;;;0.08;0.08;;;;;;;;;;4980051;28;20045;-88
2023/10/03 07:17:25;;;;;;;0.15;0.15;;;;;;;;;;4995457;28;20050;-87
2023/10/03 07:19:52;;;;;;;0.20;0.20;;;;;;;;;;4979219;28;20622;-88
2023/10/03 07:22:21;;;;;;;0.08;0.08;;;;;;;;;;4979907;28;20049;-87
2023/10/03 07:24:47;;;;;;;0.10;0.10;;;;;;;;;;4979257;28;20116;-88
2023/10/03 07:27:15;;;;;;;0.20;0.20;;;;;;;;;;4995176;28;20042;-87
2023/10/03 07:29:46;;;;;;;0.13;0.13;;;;;;;;;;4978807;28;20049;-87
2023/10/03 07:32:13;;;;;;;0.20;0.20;;;;;;;;;;4979634;28;20042;-87
2023/10/03 07:34:43;;;;;;;0.10;0.10;;;;;;;;;;4995479;28;20395;-88
2023/10/03 07:37:10;;;;;;;0.20;0.20;;;;;;;;;;4979878;28;20046;-87
2023/10/03 07:39:38;;;;;;;0.15;0.15;;;;;;;;;;4978817;28;20038;-87
2023/10/03 07:42:05;;;;;;;0.20;0.20;;;;;;;;;;4995463;28;20081;-87
2023/10/03 07:44:31;;;;;;;0.10;0.10;;;;;;;;;;4978722;28;20042;-87
2023/10/03 07:46:58;;;;;;;0.10;0.10;;;;;;;;;;4979293;28;20049;-86
2023/10/03 07:49:24;;;;;;;0.10;0.10;;;;;;;;;;4979011;28;20125;-87
2023/10/03 07:51:55;;;;;;;0.20;0.20;;;;;;;;;;4995619;28;20057;-88
2023/10/03 07:54:21;;;;;;;0.03;0.03;;;;;;;;;;4979515;28;20046;-87
2023/10/03 07:56:48;;;;;;;0.20;0.20;;;;;;;;;;4979563;28;20039;-87
2023/10/03 07:59:17;;;;;;;0.30;0.30;;;;;;;;;;4979045;28;20050;-87
2023/10/03 08:01:44;;;;;;;0.10;0.10;;;;;;;;;;4979223;28;20042;-86
2023/10/03 08:04:12;;;;;;;0.10;0.10;;;;;;;;;;4978834;28;20092;-86
2023/10/03 08:06:39;;;;;;;0.10;0.10;;;;;;;;;;4979547;28;20065;-88
2023/10/03 08:09:08;;;;;;;0.30;0.30;;;;;;;;;;4978707;28;20042;-88
2023/10/03 08:11:34;;;;;;;0.20;0.20;;;;;;;;;;4979280;28;20050;-88
2023/10/03 08:14:16;;;;;;;0.10;0.10;;;;;;;;;;4978905;28;20042;-87
2023/10/03 08:16:43;;;;;;;0.20;0.20;;;;;;;;;;4979789;28;20453;-89
2023/10/03 08:19:09;;;;;;;0.00;0.00;;;;;;;;;;4979641;28;20058;-87
2023/10/03 08:21:36;;;;;;;0.10;0.10;;;;;;;;;;4979364;28;20069;-87
2023/10/03 08:24:09;;;;;;;0.10;0.10;;;;;;;;;;4978991;28;20042;-87
2023/10/03 08:26:43;;;;;;;0.08;0.08;;;;;;;;;;4964471;28;20038;-87
2023/10/03 08:29:09;;;;;;;0.20;0.20;;;;;;;;;;4979077;28;20499;-87
2023/10/03 08:31:38;;;;;;;0.20;0.20;;;;;;;;;;4979233;28;20138;-87
2023/10/03 08:34:10;;;;;;;0.30;0.30;;;;;;;;;;4978373;28;20038;-87
2023/10/03 08:36:37;;;;;;;0.20;0.20;;;;;;;;;;4994987;28;20050;-87
2023/10/03 08:39:13;;;;;;;0.20;0.20;;;;;;;;;;4978213;28;20042;-89
2023/10/03 08:41:47;;;;;;;3.22;2.97;;;;;;;;;;4994714;28;20077;-87
2023/10/03 08:44:14;;;;;;;6.32;4.60;;;;;;;;;;4977978;28;20038;-87
2023/10/03 08:46:49;;;;;;;0.38;0.38;;;;;;;;;;4978480;28;20038;-87
2023/10/03 08:49:19;;;;;;;0.20;0.20;;;;;;;;;;4978213;28;20101;-87
2023/10/03 08:51:48;;;;;;;0.10;0.10;;;;;;;;;;4978285;28;20042;-87
2023/10/03 08:54:15;;;;;;;0.20;0.20;;;;;;;;;;4978253;28;20044;-87
2023/10/03 08:56:42;;;;;;;0.20;0.20;;;;;;;;;;4994961;28;20046;-87
2023/10/03 08:59:09;;;;;;;0.20;0.20;;;;;;;;;;4994188;28;20517;-86
2023/10/03 09:01:43;;;;;;;0.28;0.28;;;;;;;;;;4978714;28;20046;-87
2023/10/03 09:04:15;;;;;;;0.20;0.20;;;;;;;;;;4978389;28;20157;-86
2023/10/03 09:06:43;;;;;;;0.15;0.15;;;;;;;;;;4978436;28;20074;-86
2023/10/03 09:09:09;;;;;;;0.28;0.28;;;;;;;;;;4978275;28;20043;-86
2023/10/03 09:11:37;;;;;;;0.20;0.20;;;;;;;;;;4978334;28;20042;-87
2023/10/03 09:14:03;;;;;;;0.20;0.20;;;;;;;;;;4978753;28;20042;-87
2023/10/03 09:16:29;;;;;;;0.10;0.10;;;;;;;;;;4979174;28;20170;-87
2023/10/03 09:19:00;;;;;;;0.28;0.28;;;;;;;;;;4981038;28;20046;-87
2023/10/03 09:21:29;;;;;;;0.20;0.20;;;;;;;;;;4973613;28;20034;-87
2023/10/03 09:24:01;;;;;;;0.20;0.20;;;;;;;;;;4981368;28;20038;-87
2023/10/03 09:26:28;;;;;;;0.30;0.30;;;;;;;;;;4980090;28;20034;-87
2023/10/03 09:28:54;;;;;;;0.10;0.10;;;;;;;;;;4962235;28;20038;-87
2023/10/03 09:31:22;;;;;;;0.30;0.30;;;;;;;;;;4979335;28;20093;-87
2023/10/03 09:33:48;;;;;;;0.30;0.30;;;;;;;;;;4993573;28;20078;-88
2023/10/03 09:36:15;;;;;;;0.20;0.20;;;;;;;;;;4968836;28;20389;-91
2023/10/03 09:38:45;;;;;;;0.10;0.10;;;;;;;;;;4979536;28;20058;-89
2023/10/03 09:41:17;;;;;;;0.22;0.22;;;;;;;;;;4980249;28;20142;-89
2023/10/03 09:43:47;;;;;;;0.20;0.20;;;;;;;;;;4979379;28;20051;-88
2023/10/03 09:46:15;;;;;;;0.30;0.30;;;;;;;;;;4983706;28;20503;-90
2023/10/03 09:48:41;;;;;;;0.20;0.20;;;;;;;;;;4982878;28;20049;-88
2023/10/03 09:51:07;;;;;;;0.20;0.20;;;;;;;;;;4975590;28;20038;-89
2023/10/03 09:53:40;;;;;;;0.13;0.13;;;;;;;;;;4981838;28;20045;-89
2023/10/03 09:56:08;;;;;;;0.28;0.28;;;;;;;;;;4979918;28;20078;-89
2023/10/03 09:58:37;;;;;;;0.30;0.30;;;;;;;;;;4980306;28;20509;-90
2023/10/03 10:04:13;;;;;;;0.20;0.20;;;;;;;;;;4984707;28;20057;-90
2023/10/03 10:07:14;;;;;;;0.30;0.30;;;;;;;;;;4965898;28;20094;-89
2023/10/03 10:10:36;;;;;;;;;;;;;;;;;;;;;
2023/10/03 10:16:58;;;;;;;;;;;;;;;;;;;;;
2023/10/03 10:19:46;;;;;;;0.30;0.30;;;;;;;;;;4936684;29;20043;-88
2023/10/03 10:22:36;;;;;;;0.10;0.10;;;;;;;;;;4982286;28;20411;-88
2023/10/03 10:28:20;;;;;;;;;;;;;;;;;;;;;
2023/10/03 10:31:44;;;;;;;0.20;0.20;;;;;;;;;;4998400;28;20403;-88
2023/10/03 10:47:55;;;;;;;;;;;;;;;;;;;;;
2023/10/03 10:50:54;;;;;;;0.20;0.20;;;;;;;;;;4897640;29;20266;-90
2023/10/03 10:53:48;;;;;;;0.25;0.25;;;;;;;;;;4919635;29;20048;-89
2023/10/03 10:56:22;;;;;;;0.20;0.20;;;;;;;;;;4890260;29;20050;-89
2023/10/03 10:58:53;;;;;;;0.15;0.15;;;;;;;;;;4887885;29;20040;-89
2023/10/03 11:01:25;;;;;;;0.20;0.20;;;;;;;;;;4908001;28;20065;-88
2023/10/03 11:03:56;;;;;;;0.10;0.10;;;;;;;;;;4980868;28;20403;-90
2023/10/03 11:06:28;;;;;;;0.20;0.20;;;;;;;;;;4978706;28;20045;-90
2023/10/03 11:09:16;;;;;;;0.10;0.10;;;;;;;;;;4978365;28;20433;-89
2023/10/03 11:12:10;;;;;;;0.30;0.30;;;;;;;;;;4974741;28;20061;-90
2023/10/03 11:14:46;;;;;;;0.20;0.20;;;;;;;;;;4981901;28;20046;-89
2023/10/03 11:17:38;;;;;;;0.10;0.10;;;;;;;;;;4981798;28;20038;-89
2023/10/03 11:24:28;;;;;;;0.20;0.20;;;;;;;;;;4985662;28;20050;-89
2023/10/03 11:27:39;;;;;;;0.30;0.30;;;;;;;;;;4969829;28;20050;-88
2023/10/03 11:30:14;;;;;;;0.20;0.20;;;;;;;;;;4997397;28;20041;-90
2023/10/03 11:32:41;;;;;;;0.10;0.10;;;;;;;;;;4970421;28;20357;-90
2023/10/03 11:35:29;;;;;;;0.35;0.35;;;;;;;;;;4981472;28;20532;-89
2023/10/03 11:38:07;;;;;;;0.13;0.13;;;;;;;;;;4983131;28;20054;-90
2023/10/03 11:40:40;;;;;;;0.20;0.20;;;;;;;;;;4982315;28;20042;-92
2023/10/03 11:43:26;;;;;;;0.28;0.28;;;;;;;;;;4982777;28;20043;-91
2023/10/03 11:45:58;;;;;;;0.10;0.10;;;;;;;;;;4982272;28;20039;-90
2023/10/03 11:48:34;;;;;;;0.30;0.30;;;;;;;;;;4982669;28;20077;-90
2023/10/03 11:51:09;;;;;;;0.20;0.20;;;;;;;;;;4980795;28;20398;-90
2023/10/03 11:53:58;;;;;;;0.15;0.15;;;;;;;;;;4987951;28;20433;-90
2023/10/03 11:56:24;;;;;;;0.10;0.10;;;;;;;;;;4979758;28;20081;-88
2023/10/03 11:58:52;;;;;;;0.20;0.20;;;;;;;;;;4977316;28;20256;-89
2023/10/03 12:01:18;;;;;;;0.28;0.28;;;;;;;;;;4979203;28;20042;-90
2023/10/03 12:03:53;;;;;;;0.20;0.20;;;;;;;;;;4976322;28;20196;-90
2023/10/03 12:06:19;;;;;;;0.40;0.40;;;;;;;;;;4981262;28;20049;-90
2023/10/03 12:08:45;;;;;;;0.25;0.25;;;;;;;;;;4991922;28;20031;-89
2023/10/03 12:11:18;;;;;;;0.20;0.20;;;;;;;;;;4975249;28;20096;-91
2023/10/03 12:13:44;;;;;;;0.20;0.20;;;;;;;;;;4980464;28;20041;-91
2023/10/03 12:16:10;;;;;;;0.22;0.22;;;;;;;;;;4979956;28;20042;-90
2023/10/03 12:18:37;;;;;;;0.10;0.10;;;;;;;;;;4974092;28;20042;-90
2023/10/03 12:21:04;;;;;;;0.30;0.30;;;;;;;;;;4978231;28;20042;-90
2023/10/03 12:23:30;;;;;;;0.10;0.10;;;;;;;;;;4997048;28;20069;-90
2023/10/03 12:25:59;;;;;;;0.25;0.25;;;;;;;;;;4970156;28;20510;-89
2023/10/03 12:28:25;;;;;;;0.15;0.15;;;;;;;;;;4989629;28;20132;-91
2023/10/03 12:30:51;;;;;;;0.20;0.20;;;;;;;;;;4993050;28;20049;-90
2023/10/03 12:33:19;;;;;;;0.17;0.17;;;;;;;;;;4976094;28;20038;-89
2023/10/03 12:35:47;;;;;;;0.20;0.20;;;;;;;;;;4976791;28;20042;-92
2023/10/03 12:38:15;;;;;;;0.20;0.20;;;;;;;;;;4975119;28;20410;-89
2023/10/03 12:40:43;;;;;;;0.20;0.20;;;;;;;;;;4977855;28;20057;-89
2023/10/03 12:43:10;;;;;;;0.28;0.28;;;;;;;;;;4971819;28;20419;-90
2023/10/03 12:45:36;;;;;;;0.30;0.30;;;;;;;;;;4995011;28;20404;-90
2023/10/03 12:48:03;;;;;;;0.20;0.20;;;;;;;;;;4978466;28;20094;-90
2023/10/03 12:50:29;;;;;;;0.25;0.25;;;;;;;;;;4993844;28;20126;-89
2023/10/03 12:52:58;;;;;;;0.00;0.00;;;;;;;;;;4981747;28;20495;-89
2023/10/03 12:55:26;;;;;;;0.10;0.10;;;;;;;;;;4973777;28;20039;-89
2023/10/03 12:57:55;;;;;;;0.20;0.20;;;;;;;;;;4981024;28;20558;-91
2023/10/03 13:00:21;;;;;;;0.10;0.10;;;;;;;;;;4983089;28;20146;-90
2023/10/03 13:02:50;;;;;;;0.15;0.15;;;;;;;;;;4979762;28;20094;-89
2023/10/03 13:05:20;;;;;;;0.30;0.30;;;;;;;;;;4974467;28;20411;-89
2023/10/03 13:07:48;;;;;;;0.13;0.13;;;;;;;;;;4975551;28;20039;-88
2023/10/03 13:10:19;;;;;;;0.20;0.20;;;;;;;;;;4978665;28;20046;-89
2023/10/03 13:12:46;;;;;;;0.15;0.15;;;;;;;;;;4981326;28;20501;-89
2023/10/03 13:15:15;;;;;;;0.10;0.10;;;;;;;;;;4994908;28;20038;-89
2023/10/03 13:17:41;;;;;;;0.25;0.25;;;;;;;;;;4983726;28;20055;-89
2023/10/03 13:20:09;;;;;;;0.20;0.20;;;;;;;;;;4978519;28;20102;-89
2023/10/03 13:22:35;;;;;;;0.20;0.20;;;;;;;;;;4980133;28;20530;-90
2023/10/03 13:25:03;;;;;;;0.10;0.10;;;;;;;;;;4968922;28;20088;-89
2023/10/03 13:27:29;;;;;;;0.10;0.10;;;;;;;;;;4967659;28;20039;-89
2023/10/03 13:29:55;;;;;;;0.10;0.10;;;;;;;;;;4980130;28;20042;-90
2023/10/03 13:32:21;;;;;;;0.30;0.30;;;;;;;;;;4977570;28;20070;-91
2023/10/03 13:34:47;;;;;;;0.20;0.20;;;;;;;;;;4990130;28;20046;-89
2023/10/03 13:37:13;;;;;;;0.20;0.20;;;;;;;;;;4969163;28;20043;-90
2023/10/03 13:39:39;;;;;;;0.17;0.17;;;;;;;;;;4981982;28;20045;-90
2023/10/03 13:42:07;;;;;;;0.10;0.10;;;;;;;;;;4978582;28;20042;-89
2023/10/03 13:44:35;;;;;;;0.10;0.10;;;;;;;;;;4971850;28;20394;-88
2023/10/03 13:47:01;;;;;;;0.20;0.20;;;;;;;;;;4976503;28;20042;-88
2023/10/03 13:49:28;;;;;;;0.20;0.20;;;;;;;;;;4982050;28;20034;-89
2023/10/03 13:51:54;;;;;;;0.20;0.20;;;;;;;;;;4998524;28;20053;-88
2023/10/03 13:54:20;;;;;;;0.10;0.10;;;;;;;;;;4977660;28;20039;-88
2023/10/03 13:56:47;;;;;;;0.10;0.10;;;;;;;;;;4974707;28;20049;-89
2023/10/03 13:59:14;;;;;;;0.10;0.10;;;;;;;;;;4969860;28;20050;-89
2023/10/03 14:01:40;;;;;;;0.20;0.20;;;;;;;;;;4972020;28;20125;-90
2023/10/03 14:04:09;;;;;;;0.10;0.10;;;;;;;;;;4982598;28;20043;-89
2023/10/03 14:06:35;;;;;;;0.20;0.20;;;;;;;;;;4983329;28;20054;-89
2023/10/03 14:09:01;;;;;;;0.20;0.20;;;;;;;;;;4977291;28;20106;-89
2023/10/03 14:11:28;;;;;;;0.20;0.20;;;;;;;;;;4965770;28;20515;-89
2023/10/03 14:13:55;;;;;;;0.10;0.10;;;;;;;;;;4971261;28;20097;-89
2023/10/03 14:16:28;;;;;;;0.28;0.28;;;;;;;;;;4993452;28;20477;-88
2023/10/03 14:18:57;;;;;;;0.20;0.20;;;;;;;;;;4971308;28;20035;-88
2023/10/03 14:21:23;;;;;;;0.10;0.10;;;;;;;;;;4963630;28;20038;-89
2023/10/03 14:23:51;;;;;;;0.20;0.20;;;;;;;;;;4976254;28;20046;-89
2023/10/03 14:26:17;;;;;;;0.15;0.15;;;;;;;;;;4982456;28;20046;-89
2023/10/03 14:28:43;;;;;;;0.10;0.10;;;;;;;;;;4977559;28;20121;-88
2023/10/03 14:31:09;;;;;;;0.10;0.10;;;;;;;;;;4979408;28;20145;-88
2023/10/03 14:33:36;;;;;;;0.17;0.17;;;;;;;;;;4970592;28;20082;-89
2023/10/03 14:36:03;;;;;;;0.20;0.20;;;;;;;;;;4970270;28;20053;-89
2023/10/03 14:38:29;;;;;;;0.20;0.20;;;;;;;;;;4969379;28;20088;-89
2023/10/03 14:40:58;;;;;;;0.20;0.20;;;;;;;;;;4993169;28;20065;-89
2023/10/03 14:43:26;;;;;;;0.20;0.20;;;;;;;;;;4976778;28;20038;-89
2023/10/03 14:45:52;;;;;;;0.20;0.20;;;;;;;;;;4973998;28;20043;-89
2023/10/03 14:48:24;;;;;;;0.30;0.30;;;;;;;;;;4996621;28;20511;-88
2023/10/03 14:50:52;;;;;;;0.30;0.30;;;;;;;;;;4968200;28;20500;-88
2023/10/03 14:53:20;;;;;;;0.20;0.20;;;;;;;;;;4991182;28;20399;-89
2023/10/03 14:55:46;;;;;;;0.30;0.30;;;;;;;;;;4972901;28;20046;-89
2023/10/03 14:58:12;;;;;;;0.20;0.20;;;;;;;;;;4965949;28;20046;-89
2023/10/03 15:00:41;;;;;;;0.30;0.30;;;;;;;;;;4976175;28;20094;-89
2023/10/03 15:03:07;;;;;;;0.30;0.30;;;;;;;;;;4975826;28;20047;-89
2023/10/03 15:05:35;;;;;;;0.15;0.15;;;;;;;;;;4974937;28;20113;-89
2023/10/03 15:08:02;;;;;;;0.22;0.22;;;;;;;;;;4980267;28;20057;-89
2023/10/03 15:10:30;;;;;;;0.30;0.30;;;;;;;;;;4974596;28;20082;-90
2023/10/03 15:12:58;;;;;;;0.20;0.20;;;;;;;;;;4979905;28;20116;-88
2023/10/03 15:15:26;;;;;;;0.20;0.20;;;;;;;;;;4981485;28;20128;-89
2023/10/03 15:17:55;;;;;;;0.20;0.20;;;;;;;;;;4997742;28;20046;-89
2023/10/03 15:20:22;;;;;;;0.25;0.25;;;;;;;;;;4981109;28;20046;-89
2023/10/03 15:22:51;;;;;;;0.20;0.20;;;;;;;;;;4982057;28;20144;-89
2023/10/03 15:25:17;;;;;;;0.30;0.30;;;;;;;;;;4969945;28;20091;-89